sensor_id;sensor_type;location;lat;lon;timestamp;pressure;altitude;pressure_sealevel;temperature;humidity
74079;BME280;62437;51.544;-3.276;2023-02-28T00:00:48;102818.16;;;3.66;57.73
74079;BME280;62437;51.544;-3.276;2023-02-28T00:03:14;102818.61;;;3.82;57.29
74079;BME280;62437;51.544;-3.276;2023-02-28T00:05:34;102816.46;;;2.36;61.01
74079;BME280;62437;51.544;-3.276;2023-02-28T00:08:08;102819.49;;;2.37;60.77
74079;BME280;62437;51.544;-3.276;2023-02-28T00:10:31;102824.89;;;3.60;57.24
74079;BME280;62437;51.544;-3.276;2023-02-28T00:13:01;102827.33;;;2.34;62.39
74079;BME280;62437;51.544;-3.276;2023-02-28T00:15:23;102829.10;;;1.73;63.91
74079;BME280;62437;51.544;-3.276;2023-02-28T00:17:49;102831.50;;;1.38;64.61
74079;BME280;62437;51.544;-3.276;2023-02-28T00:20:14;102835.83;;;2.92;61.23
74079;BME280;62437;51.544;-3.276;2023-02-28T00:22:42;102838.38;;;2.76;60.97
74079;BME280;62437;51.544;-3.276;2023-02-28T00:25:00;102836.95;;;2.84;60.47
74079;BME280;62437;51.544;-3.276;2023-02-28T00:27:26;102836.23;;;2.79;61.00
74079;BME280;62437;51.544;-3.276;2023-02-28T00:29:57;102830.24;;;3.27;58.71
74079;BME280;62437;51.544;-3.276;2023-02-28T00:32:26;102832.06;;;2.96;59.52
74079;BME280;62437;51.544;-3.276;2023-02-28T00:34:49;102835.00;;;3.17;59.95
74079;BME280;62437;51.544;-3.276;2023-02-28T00:37:11;102835.63;;;3.61;57.54
74079;BME280;62437;51.544;-3.276;2023-02-28T00:39:43;102832.68;;;3.05;58.82
74079;BME280;62437;51.544;-3.276;2023-02-28T00:42:07;102825.51;;;2.75;59.61
74079;BME280;62437;51.544;-3.276;2023-02-28T00:44:27;102829.56;;;2.95;58.97
74079;BME280;62437;51.544;-3.276;2023-02-28T00:47:01;102830.98;;;3.68;56.93
74079;BME280;62437;51.544;-3.276;2023-02-28T00:49:24;102829.97;;;4.31;55.23
74079;BME280;62437;51.544;-3.276;2023-02-28T00:51:44;102830.38;;;3.92;55.30
74079;BME280;62437;51.544;-3.276;2023-02-28T00:54:15;102832.31;;;3.74;55.44
74079;BME280;62437;51.544;-3.276;2023-02-28T00:56:44;102833.44;;;4.36;54.90
74079;BME280;62437;51.544;-3.276;2023-02-28T00:59:07;102832.18;;;4.87;52.80
74079;BME280;62437;51.544;-3.276;2023-02-28T01:01:33;102833.20;;;5.35;51.39
74079;BME280;62437;51.544;-3.276;2023-02-28T01:04:03;102839.51;;;5.02;52.62
74079;BME280;62437;51.544;-3.276;2023-02-28T01:06:24;102835.64;;;4.33;53.88
74079;BME280;62437;51.544;-3.276;2023-02-28T01:08:50;102834.98;;;4.96;52.36
74079;BME280;62437;51.544;-3.276;2023-02-28T01:11:19;102844.62;;;4.26;53.57
74079;BME280;62437;51.544;-3.276;2023-02-28T01:13:42;102845.95;;;3.65;56.10
74079;BME280;62437;51.544;-3.276;2023-02-28T01:16:02;102841.93;;;3.49;56.68
74079;BME280;62437;51.544;-3.276;2023-02-28T01:18:28;102841.61;;;3.16;57.92
74079;BME280;62437;51.544;-3.276;2023-02-28T01:20:54;102843.00;;;2.50;60.32
74079;BME280;62437;51.544;-3.276;2023-02-28T01:23:25;102841.74;;;2.85;58.90
74079;BME280;62437;51.544;-3.276;2023-02-28T01:25:51;102844.88;;;3.30;57.46
74079;BME280;62437;51.544;-3.276;2023-02-28T01:28:20;102850.40;;;2.43;59.99
74079;BME280;62437;51.544;-3.276;2023-02-28T01:30:42;102847.86;;;2.53;59.48
74079;BME280;62437;51.544;-3.276;2023-02-28T01:33:03;102849.72;;;3.45;57.04
74079;BME280;62437;51.544;-3.276;2023-02-28T01:35:37;102848.96;;;2.89;57.94
74079;BME280;62437;51.544;-3.276;2023-02-28T01:38:00;102847.56;;;3.78;56.50
74079;BME280;62437;51.544;-3.276;2023-02-28T01:40:25;102848.15;;;3.24;57.53
74079;BME280;62437;51.544;-3.276;2023-02-28T01:42:46;102850.58;;;4.31;55.84
74079;BME280;62437;51.544;-3.276;2023-02-28T01:45:24;102848.88;;;3.80;57.20
74079;BME280;62437;51.544;-3.276;2023-02-28T01:47:40;102843.10;;;2.68;59.96
74079;BME280;62437;51.544;-3.276;2023-02-28T01:50:13;102843.48;;;3.08;59.51
74079;BME280;62437;51.544;-3.276;2023-02-28T01:52:30;102842.33;;;4.78;53.18
74079;BME280;62437;51.544;-3.276;2023-02-28T01:55:02;102846.46;;;4.40;53.83
74079;BME280;62437;51.544;-3.276;2023-02-28T01:57:32;102848.98;;;3.22;57.50
74079;BME280;62437;51.544;-3.276;2023-02-28T01:59:57;102843.54;;;4.87;53.58
74079;BME280;62437;51.544;-3.276;2023-02-28T02:02:20;102842.16;;;4.04;55.01
74079;BME280;62437;51.544;-3.276;2023-02-28T02:04:50;102851.32;;;1.48;60.71
74079;BME280;62437;51.544;-3.276;2023-02-28T02:07:13;102845.75;;;3.25;58.08
74079;BME280;62437;51.544;-3.276;2023-02-28T02:09:35;102849.17;;;2.17;61.41
74079;BME280;62437;51.544;-3.276;2023-02-28T02:12:09;102852.67;;;1.91;61.97
74079;BME280;62437;51.544;-3.276;2023-02-28T02:14:45;102855.98;;;1.99;61.87
74079;BME280;62437;51.544;-3.276;2023-02-28T02:17:05;102853.02;;;2.97;59.59
74079;BME280;62437;51.544;-3.276;2023-02-28T02:22:05;102850.47;;;3.49;58.32
74079;BME280;62437;51.544;-3.276;2023-02-28T02:26:50;102846.33;;;3.01;59.30
74079;BME280;62437;51.544;-3.276;2023-02-28T02:36:23;102847.46;;;2.16;62.38
74079;BME280;62437;51.544;-3.276;2023-02-28T02:38:50;102842.59;;;1.72;63.61
74079;BME280;62437;51.544;-3.276;2023-02-28T02:41:16;102835.61;;;3.04;60.68
74079;BME280;62437;51.544;-3.276;2023-02-28T02:43:42;102837.82;;;2.62;60.94
74079;BME280;62437;51.544;-3.276;2023-02-28T02:46:12;102839.50;;;3.50;58.61
74079;BME280;62437;51.544;-3.276;2023-02-28T02:48:34;102832.70;;;2.32;60.50
74079;BME280;62437;51.544;-3.276;2023-02-28T02:50:51;102833.65;;;3.46;57.97
74079;BME280;62437;51.544;-3.276;2023-02-28T02:53:27;102835.90;;;2.68;58.89
74079;BME280;62437;51.544;-3.276;2023-02-28T02:55:51;102838.00;;;4.23;55.93
74079;BME280;62437;51.544;-3.276;2023-02-28T02:58:16;102836.51;;;3.65;56.84
74079;BME280;62437;51.544;-3.276;2023-02-28T03:00:41;102835.03;;;4.14;55.03
74079;BME280;62437;51.544;-3.276;2023-02-28T03:02:58;102830.48;;;3.08;58.62
74079;BME280;62437;51.544;-3.276;2023-02-28T03:05:32;102834.60;;;3.63;56.47
74079;BME280;62437;51.544;-3.276;2023-02-28T03:07:54;102830.48;;;3.25;57.64
74079;BME280;62437;51.544;-3.276;2023-02-28T03:10:30;102830.78;;;3.23;58.29
74079;BME280;62437;51.544;-3.276;2023-02-28T03:12:52;102830.80;;;4.39;54.96
74079;BME280;62437;51.544;-3.276;2023-02-28T03:15:12;102828.72;;;3.98;56.65
74079;BME280;62437;51.544;-3.276;2023-02-28T03:17:54;102822.83;;;4.52;54.81
74079;BME280;62437;51.544;-3.276;2023-02-28T03:20:12;102822.20;;;4.83;54.87
74079;BME280;62437;51.544;-3.276;2023-02-28T03:22:41;102817.97;;;5.12;54.67
74079;BME280;62437;51.544;-3.276;2023-02-28T03:25:01;102819.11;;;4.08;56.56
74079;BME280;62437;51.544;-3.276;2023-02-28T03:27:26;102821.69;;;2.64;60.24
74079;BME280;62437;51.544;-3.276;2023-02-28T03:29:52;102824.68;;;4.36;56.93
74079;BME280;62437;51.544;-3.276;2023-02-28T03:32:16;102828.53;;;1.37;63.02
74079;BME280;62437;51.544;-3.276;2023-02-28T03:34:36;102826.43;;;2.29;60.81
74079;BME280;62437;51.544;-3.276;2023-02-28T03:37:04;102824.58;;;3.04;58.97
74079;BME280;62437;51.544;-3.276;2023-02-28T03:39:38;102826.60;;;4.11;58.06
74079;BME280;62437;51.544;-3.276;2023-02-28T03:42:01;102825.89;;;1.75;61.16
74079;BME280;62437;51.544;-3.276;2023-02-28T03:44:24;102828.34;;;3.80;58.18
74079;BME280;62437;51.544;-3.276;2023-02-28T03:46:50;102824.58;;;3.93;57.25
74079;BME280;62437;51.544;-3.276;2023-02-28T03:49:18;102816.13;;;5.86;52.46
74079;BME280;62437;51.544;-3.276;2023-02-28T03:51:42;102811.25;;;6.93;49.49
74079;BME280;62437;51.544;-3.276;2023-02-28T03:54:07;102811.81;;;6.90;49.26
74079;BME280;62437;51.544;-3.276;2023-02-28T03:56:30;102812.44;;;6.19;50.97
74079;BME280;62437;51.544;-3.276;2023-02-28T03:59:04;102809.61;;;5.64;53.10
74079;BME280;62437;51.544;-3.276;2023-02-28T04:01:26;102808.25;;;5.75;52.69
74079;BME280;62437;51.544;-3.276;2023-02-28T04:03:49;102808.22;;;6.18;51.37
74079;BME280;62437;51.544;-3.276;2023-02-28T04:06:18;102812.72;;;5.94;51.56
74079;BME280;62437;51.544;-3.276;2023-02-28T04:08:34;102811.32;;;6.20;51.49
74079;BME280;62437;51.544;-3.276;2023-02-28T04:11:03;102810.33;;;6.73;50.19
74079;BME280;62437;51.544;-3.276;2023-02-28T04:13:25;102813.68;;;6.84;49.54
74079;BME280;62437;51.544;-3.276;2023-02-28T04:15:57;102821.85;;;5.64;52.33
74079;BME280;62437;51.544;-3.276;2023-02-28T04:18:23;102820.00;;;6.45;49.86
74079;BME280;62437;51.544;-3.276;2023-02-28T04:20:48;102821.27;;;6.85;48.98
74079;BME280;62437;51.544;-3.276;2023-02-28T04:23:18;102824.60;;;5.99;50.62
74079;BME280;62437;51.544;-3.276;2023-02-28T04:25:39;102824.29;;;6.03;50.99
74079;BME280;62437;51.544;-3.276;2023-02-28T04:28:05;102827.93;;;5.28;52.82
74079;BME280;62437;51.544;-3.276;2023-02-28T04:30:34;102832.73;;;4.98;53.41
74079;BME280;62437;51.544;-3.276;2023-02-28T04:32:57;102831.16;;;5.52;52.08
74079;BME280;62437;51.544;-3.276;2023-02-28T04:35:22;102830.05;;;5.75;51.67
74079;BME280;62437;51.544;-3.276;2023-02-28T04:37:48;102830.80;;;4.57;54.54
74079;BME280;62437;51.544;-3.276;2023-02-28T04:40:14;102838.19;;;3.79;56.86
74079;BME280;62437;51.544;-3.276;2023-02-28T04:42:40;102836.89;;;2.48;60.62
74079;BME280;62437;51.544;-3.276;2023-02-28T04:45:10;102831.09;;;5.44;53.88
74079;BME280;62437;51.544;-3.276;2023-02-28T04:47:31;102831.65;;;3.79;57.67
74079;BME280;62437;51.544;-3.276;2023-02-28T04:49:57;102831.99;;;4.95;54.65
74079;BME280;62437;51.544;-3.276;2023-02-28T04:52:24;102837.78;;;3.36;58.12
74079;BME280;62437;51.544;-3.276;2023-02-28T04:54:53;102833.38;;;5.89;52.30
74079;BME280;62437;51.544;-3.276;2023-02-28T04:57:15;102842.46;;;4.21;56.52
74079;BME280;62437;51.544;-3.276;2023-02-28T04:59:35;102855.88;;;2.83;58.48
74079;BME280;62437;51.544;-3.276;2023-02-28T05:02:01;102857.96;;;4.77;55.26
74079;BME280;62437;51.544;-3.276;2023-02-28T05:04:32;102860.33;;;5.49;54.54
74079;BME280;62437;51.544;-3.276;2023-02-28T05:06:58;102860.78;;;4.42;56.22
74079;BME280;62437;51.544;-3.276;2023-02-28T05:09:24;102848.05;;;6.66;50.50
74079;BME280;62437;51.544;-3.276;2023-02-28T05:11:49;102854.45;;;3.04;58.70
74079;BME280;62437;51.544;-3.276;2023-02-28T05:14:15;102855.35;;;5.11;54.56
74079;BME280;62437;51.544;-3.276;2023-02-28T05:16:41;102853.82;;;5.81;52.26
74079;BME280;62437;51.544;-3.276;2023-02-28T05:19:07;102853.26;;;5.44;53.53
74079;BME280;62437;51.544;-3.276;2023-02-28T05:21:34;102859.69;;;3.39;57.81
74079;BME280;62437;51.544;-3.276;2023-02-28T05:23:54;102852.34;;;5.63;52.90
74079;BME280;62437;51.544;-3.276;2023-02-28T05:26:28;102856.66;;;4.47;55.81
74079;BME280;62437;51.544;-3.276;2023-02-28T05:28:45;102863.53;;;3.91;57.31
74079;BME280;62437;51.544;-3.276;2023-02-28T05:31:16;102862.68;;;5.10;53.96
74079;BME280;62437;51.544;-3.276;2023-02-28T05:33:46;102862.44;;;5.87;52.85
74079;BME280;62437;51.544;-3.276;2023-02-28T05:36:08;102871.48;;;3.28;59.81
74079;BME280;62437;51.544;-3.276;2023-02-28T05:38:33;102866.49;;;5.73;53.78
74079;BME280;62437;51.544;-3.276;2023-02-28T05:40:54;102872.54;;;4.10;58.20
74079;BME280;62437;51.544;-3.276;2023-02-28T05:43:25;102876.44;;;4.60;56.12
74079;BME280;62437;51.544;-3.276;2023-02-28T05:45:45;102882.02;;;3.74;58.16
74079;BME280;62437;51.544;-3.276;2023-02-28T05:48:12;102879.63;;;4.13;57.67
74079;BME280;62437;51.544;-3.276;2023-02-28T05:50:37;102877.86;;;4.32;57.60
74079;BME280;62437;51.544;-3.276;2023-02-28T05:53:03;102875.72;;;4.11;58.36
74079;BME280;62437;51.544;-3.276;2023-02-28T05:55:34;102871.54;;;5.29;54.49
74079;BME280;62437;51.544;-3.276;2023-02-28T05:58:02;102871.49;;;4.84;56.12
74079;BME280;62437;51.544;-3.276;2023-02-28T06:00:25;102873.74;;;4.88;55.52
74079;BME280;62437;51.544;-3.276;2023-02-28T06:02:46;102874.15;;;3.33;60.96
74079;BME280;62437;51.544;-3.276;2023-02-28T06:05:14;102880.05;;;3.84;59.18
74079;BME280;62437;51.544;-3.276;2023-02-28T06:07:37;102877.62;;;3.82;59.70
74079;BME280;62437;51.544;-3.276;2023-02-28T06:10:10;102883.83;;;3.25;62.64
74079;BME280;62437;51.544;-3.276;2023-02-28T06:12:29;102884.84;;;4.29;58.23
74079;BME280;62437;51.544;-3.276;2023-02-28T06:14:55;102884.08;;;4.53;56.93
74079;BME280;62437;51.544;-3.276;2023-02-28T06:17:26;102887.62;;;4.73;57.62
74079;BME280;62437;51.544;-3.276;2023-02-28T06:19:46;102886.87;;;4.96;55.76
74079;BME280;62437;51.544;-3.276;2023-02-28T06:22:17;102887.38;;;4.51;57.78
74079;BME280;62437;51.544;-3.276;2023-02-28T06:24:38;102892.64;;;1.80;66.57
74079;BME280;62437;51.544;-3.276;2023-02-28T06:27:09;102891.28;;;3.70;59.92
74079;BME280;62437;51.544;-3.276;2023-02-28T06:29:30;102891.53;;;4.48;58.51
74079;BME280;62437;51.544;-3.276;2023-02-28T06:32:01;102893.41;;;4.45;58.51
74079;BME280;62437;51.544;-3.276;2023-02-28T06:34:27;102896.56;;;3.01;63.30
74079;BME280;62437;51.544;-3.276;2023-02-28T06:36:55;102896.46;;;4.37;58.83
74079;BME280;62437;51.544;-3.276;2023-02-28T06:39:18;102896.39;;;3.37;63.02
74079;BME280;62437;51.544;-3.276;2023-02-28T06:41:44;102892.22;;;3.04;63.79
74079;BME280;62437;51.544;-3.276;2023-02-28T06:44:15;102891.31;;;2.53;65.00
74079;BME280;62437;51.544;-3.276;2023-02-28T06:46:35;102891.92;;;2.89;64.34
74079;BME280;62437;51.544;-3.276;2023-02-28T06:49:01;102893.39;;;3.38;62.02
74079;BME280;62437;51.544;-3.276;2023-02-28T06:51:27;102892.73;;;3.69;61.70
74079;BME280;62437;51.544;-3.276;2023-02-28T06:53:57;102892.82;;;4.24;59.14
74079;BME280;62437;51.544;-3.276;2023-02-28T06:56:19;102887.89;;;4.10;60.45
74079;BME280;62437;51.544;-3.276;2023-02-28T06:58:39;102891.69;;;4.85;57.65
74079;BME280;62437;51.544;-3.276;2023-02-28T07:01:14;102895.73;;;4.80;55.68
74079;BME280;62437;51.544;-3.276;2023-02-28T07:03:36;102900.15;;;5.21;55.34
74079;BME280;62437;51.544;-3.276;2023-02-28T07:05:57;102898.84;;;4.23;58.70
74079;BME280;62437;51.544;-3.276;2023-02-28T07:08:28;102901.93;;;3.36;62.38
74079;BME280;62437;51.544;-3.276;2023-02-28T07:10:51;102901.31;;;4.38;59.43
74079;BME280;62437;51.544;-3.276;2023-02-28T07:13:20;102900.99;;;4.66;59.21
74079;BME280;62437;51.544;-3.276;2023-02-28T07:15:54;102901.09;;;5.29;55.68
74079;BME280;62437;51.544;-3.276;2023-02-28T07:18:11;102900.16;;;5.92;53.16
74079;BME280;62437;51.544;-3.276;2023-02-28T07:20:37;102902.01;;;5.78;53.71
74079;BME280;62437;51.544;-3.276;2023-02-28T07:23:02;102899.47;;;5.49;53.96
74079;BME280;62437;51.544;-3.276;2023-02-28T07:25:31;102898.08;;;5.57;53.62
74079;BME280;62437;51.544;-3.276;2023-02-28T07:27:55;102903.81;;;5.55;54.08
74079;BME280;62437;51.544;-3.276;2023-02-28T07:30:15;102905.46;;;5.66;53.53
74079;BME280;62437;51.544;-3.276;2023-02-28T07:32:49;102910.16;;;4.66;58.23
74079;BME280;62437;51.544;-3.276;2023-02-28T07:35:12;102914.68;;;4.00;60.83
74079;BME280;62437;51.544;-3.276;2023-02-28T07:37:37;102915.92;;;4.53;59.98
74079;BME280;62437;51.544;-3.276;2023-02-28T07:40:09;102911.65;;;5.74;55.60
74079;BME280;62437;51.544;-3.276;2023-02-28T07:42:24;102904.77;;;6.59;52.32
74079;BME280;62437;51.544;-3.276;2023-02-28T07:44:55;102909.50;;;5.06;57.59
74079;BME280;62437;51.544;-3.276;2023-02-28T07:47:15;102911.05;;;5.74;53.74
74079;BME280;62437;51.544;-3.276;2023-02-28T07:49:41;102914.55;;;4.76;58.85
74079;BME280;62437;51.544;-3.276;2023-02-28T07:52:12;102908.23;;;5.71;54.23
74079;BME280;62437;51.544;-3.276;2023-02-28T07:54:38;102915.51;;;3.95;61.30
74079;BME280;62437;51.544;-3.276;2023-02-28T07:57:07;102919.50;;;4.83;59.14
74079;BME280;62437;51.544;-3.276;2023-02-28T07:59:29;102921.89;;;4.21;59.88
74079;BME280;62437;51.544;-3.276;2023-02-28T08:01:57;102922.56;;;4.26;60.68
74079;BME280;62437;51.544;-3.276;2023-02-28T08:04:24;102928.82;;;2.19;70.02
74079;BME280;62437;51.544;-3.276;2023-02-28T08:06:47;102926.02;;;2.06;69.50
74079;BME280;62437;51.544;-3.276;2023-02-28T08:09:13;102925.67;;;1.96;70.23
74079;BME280;62437;51.544;-3.276;2023-02-28T08:11:38;102925.22;;;2.10;68.81
74079;BME280;62437;51.544;-3.276;2023-02-28T08:13:59;102916.83;;;2.43;67.82
74079;BME280;62437;51.544;-3.276;2023-02-28T08:16:30;102917.82;;;2.34;66.97
74079;BME280;62437;51.544;-3.276;2023-02-28T08:18:51;102920.73;;;1.62;69.61
74079;BME280;62437;51.544;-3.276;2023-02-28T08:21:24;102922.00;;;0.92;71.09
74079;BME280;62437;51.544;-3.276;2023-02-28T08:23:48;102915.88;;;3.47;64.24
74079;BME280;62437;51.544;-3.276;2023-02-28T08:26:13;102925.58;;;2.47;68.83
74079;BME280;62437;51.544;-3.276;2023-02-28T08:28:34;102925.27;;;2.13;69.44
74079;BME280;62437;51.544;-3.276;2023-02-28T08:31:01;102920.57;;;3.65;63.11
74079;BME280;62437;51.544;-3.276;2023-02-28T08:33:30;102926.94;;;3.71;63.78
74079;BME280;62437;51.544;-3.276;2023-02-28T08:35:59;102928.00;;;4.10;61.85
74079;BME280;62437;51.544;-3.276;2023-02-28T08:38:22;102927.79;;;4.10;61.55
74079;BME280;62437;51.544;-3.276;2023-02-28T08:40:48;102928.33;;;4.03;62.14
74079;BME280;62437;51.544;-3.276;2023-02-28T08:43:08;102932.61;;;4.15;61.12
74079;BME280;62437;51.544;-3.276;2023-02-28T08:45:40;102930.61;;;3.87;62.65
74079;BME280;62437;51.544;-3.276;2023-02-28T08:48:05;102932.45;;;1.57;70.54
74079;BME280;62437;51.544;-3.276;2023-02-28T08:50:34;102932.35;;;1.88;68.66
74079;BME280;62437;51.544;-3.276;2023-02-28T08:52:59;102933.86;;;1.56;70.87
74079;BME280;62437;51.544;-3.276;2023-02-28T08:55:22;102935.64;;;2.98;67.05
74079;BME280;62437;51.544;-3.276;2023-02-28T08:57:48;102941.40;;;1.35;70.17
74079;BME280;62437;51.544;-3.276;2023-02-28T09:00:11;102937.13;;;1.24;70.88
74079;BME280;62437;51.544;-3.276;2023-02-28T09:02:40;102932.19;;;2.13;68.65
74079;BME280;62437;51.544;-3.276;2023-02-28T09:05:06;102935.90;;;2.73;67.70
74079;BME280;62437;51.544;-3.276;2023-02-28T09:07:34;102936.75;;;2.38;68.48
74079;BME280;62437;51.544;-3.276;2023-02-28T09:09:52;102928.11;;;3.79;64.51
74079;BME280;62437;51.544;-3.276;2023-02-28T09:12:24;102924.90;;;3.17;65.35
74079;BME280;62437;51.544;-3.276;2023-02-28T09:14:45;102922.00;;;3.41;64.67
74079;BME280;62437;51.544;-3.276;2023-02-28T09:17:14;102920.75;;;2.45;66.88
74079;BME280;62437;51.544;-3.276;2023-02-28T09:19:35;102919.80;;;3.22;65.86
74079;BME280;62437;51.544;-3.276;2023-02-28T09:22:09;102918.00;;;2.47;66.15
74079;BME280;62437;51.544;-3.276;2023-02-28T09:24:35;102920.77;;;2.20;69.00
74079;BME280;62437;51.544;-3.276;2023-02-28T09:26:52;102922.39;;;1.83;68.58
74079;BME280;62437;51.544;-3.276;2023-02-28T09:29:23;102912.69;;;3.28;66.77
74079;BME280;62437;51.544;-3.276;2023-02-28T09:31:52;102917.02;;;3.09;66.20
74079;BME280;62437;51.544;-3.276;2023-02-28T09:34:15;102919.16;;;2.09;68.36
74079;BME280;62437;51.544;-3.276;2023-02-28T09:36:40;102918.21;;;2.92;65.52
74079;BME280;62437;51.544;-3.276;2023-02-28T09:39:06;102920.08;;;2.36;67.13
74079;BME280;62437;51.544;-3.276;2023-02-28T09:41:38;102914.04;;;3.82;65.72
74079;BME280;62437;51.544;-3.276;2023-02-28T09:44:00;102914.82;;;2.96;66.23
74079;BME280;62437;51.544;-3.276;2023-02-28T09:46:32;102908.10;;;3.61;65.31
74079;BME280;62437;51.544;-3.276;2023-02-28T09:48:50;102913.36;;;2.51;66.75
74079;BME280;62437;51.544;-3.276;2023-02-28T09:51:28;102907.21;;;3.23;66.05
74079;BME280;62437;51.544;-3.276;2023-02-28T09:53:44;102913.02;;;2.09;69.71
74079;BME280;62437;51.544;-3.276;2023-02-28T09:56:17;102917.78;;;3.25;67.44
74079;BME280;62437;51.544;-3.276;2023-02-28T09:58:37;102918.39;;;2.81;67.22
74079;BME280;62437;51.544;-3.276;2023-02-28T10:00:58;102915.56;;;4.13;64.57
74079;BME280;62437;51.544;-3.276;2023-02-28T10:03:26;102921.59;;;4.26;62.90
74079;BME280;62437;51.544;-3.276;2023-02-28T10:05:52;102921.64;;;4.52;62.75
74079;BME280;62437;51.544;-3.276;2023-02-28T10:08:18;102920.21;;;3.98;64.53
74079;BME280;62437;51.544;-3.276;2023-02-28T10:10:45;102922.95;;;4.56;62.42
74079;BME280;62437;51.544;-3.276;2023-02-28T10:13:07;102918.73;;;4.75;61.88
74079;BME280;62437;51.544;-3.276;2023-02-28T10:15:34;102913.53;;;4.00;63.07
74079;BME280;62437;51.544;-3.276;2023-02-28T10:18:03;102916.45;;;4.28;63.58
74079;BME280;62437;51.544;-3.276;2023-02-28T10:20:25;102916.19;;;2.45;65.44
74079;BME280;62437;51.544;-3.276;2023-02-28T10:22:56;102917.40;;;3.73;64.38
74079;BME280;62437;51.544;-3.276;2023-02-28T10:25:22;102908.13;;;2.87;65.82
74079;BME280;62437;51.544;-3.276;2023-02-28T10:27:41;102908.93;;;4.04;63.65
74079;BME280;62437;51.544;-3.276;2023-02-28T10:30:11;102911.33;;;4.56;62.51
74079;BME280;62437;51.544;-3.276;2023-02-28T10:32:34;102909.12;;;4.38;62.32
74079;BME280;62437;51.544;-3.276;2023-02-28T10:35:00;102908.79;;;4.29;63.05
74079;BME280;62437;51.544;-3.276;2023-02-28T10:37:24;102903.71;;;4.40;63.00
74079;BME280;62437;51.544;-3.276;2023-02-28T10:39:50;102901.92;;;4.66;62.50
74079;BME280;62437;51.544;-3.276;2023-02-28T10:42:22;102896.88;;;4.93;61.84
74079;BME280;62437;51.544;-3.276;2023-02-28T10:44:41;102895.53;;;4.81;60.87
74079;BME280;62437;51.544;-3.276;2023-02-28T10:47:13;102895.82;;;4.62;62.69
74079;BME280;62437;51.544;-3.276;2023-02-28T10:49:36;102902.11;;;2.93;66.13
74079;BME280;62437;51.544;-3.276;2023-02-28T10:52:00;102899.84;;;4.13;65.08
74079;BME280;62437;51.544;-3.276;2023-02-28T10:54:30;102896.37;;;3.28;64.80
74079;BME280;62437;51.544;-3.276;2023-02-28T10:57:05;102899.66;;;4.10;64.09
74079;BME280;62437;51.544;-3.276;2023-02-28T10:59:28;102902.10;;;4.35;63.64
74079;BME280;62437;51.544;-3.276;2023-02-28T11:01:43;102905.95;;;5.03;62.01
74079;BME280;62437;51.544;-3.276;2023-02-28T11:04:03;102904.26;;;2.76;66.73
74079;BME280;62437;51.544;-3.276;2023-02-28T11:06:36;102904.08;;;2.92;66.19
74079;BME280;62437;51.544;-3.276;2023-02-28T11:09:01;102899.64;;;3.30;65.00
74079;BME280;62437;51.544;-3.276;2023-02-28T11:11:27;102902.71;;;3.78;65.23
74079;BME280;62437;51.544;-3.276;2023-02-28T11:13:56;102903.97;;;4.08;65.19
74079;BME280;62437;51.544;-3.276;2023-02-28T11:16:16;102904.37;;;4.31;62.13
74079;BME280;62437;51.544;-3.276;2023-02-28T11:18:40;102904.63;;;4.86;62.21
74079;BME280;62437;51.544;-3.276;2023-02-28T11:21:03;102906.79;;;3.95;60.37
74079;BME280;62437;51.544;-3.276;2023-02-28T11:23:37;102900.23;;;3.10;64.78
74079;BME280;62437;51.544;-3.276;2023-02-28T11:26:01;102901.51;;;4.16;62.59
74079;BME280;62437;51.544;-3.276;2023-02-28T11:28:26;102902.04;;;2.85;64.76
74079;BME280;62437;51.544;-3.276;2023-02-28T11:30:45;102897.83;;;4.51;63.86
74079;BME280;62437;51.544;-3.276;2023-02-28T11:33:25;102891.28;;;5.36;61.39
74079;BME280;62437;51.544;-3.276;2023-02-28T11:35:46;102891.47;;;4.24;61.68
74079;BME280;62437;51.544;-3.276;2023-02-28T11:38:04;102884.92;;;4.83;62.89
74079;BME280;62437;51.544;-3.276;2023-02-28T11:40:43;102887.28;;;4.82;63.08
74079;BME280;62437;51.544;-3.276;2023-02-28T11:43:10;102881.09;;;5.46;61.18
74079;BME280;62437;51.544;-3.276;2023-02-28T11:45:32;102885.42;;;3.74;65.69
74079;BME280;62437;51.544;-3.276;2023-02-28T11:47:57;102879.19;;;3.85;64.60
74079;BME280;62437;51.544;-3.276;2023-02-28T11:50:30;102879.63;;;5.09;61.97
74079;BME280;62437;51.544;-3.276;2023-02-28T11:52:51;102880.12;;;5.03;62.31
74079;BME280;62437;51.544;-3.276;2023-02-28T11:55:16;102874.36;;;4.51;63.86
74079;BME280;62437;51.544;-3.276;2023-02-28T11:57:48;102875.20;;;5.03;63.59
74079;BME280;62437;51.544;-3.276;2023-02-28T12:00:06;102877.22;;;4.07;63.05
74079;BME280;62437;51.544;-3.276;2023-02-28T12:02:30;102874.32;;;4.49;63.96
74079;BME280;62437;51.544;-3.276;2023-02-28T12:04:58;102872.89;;;4.02;62.99
74079;BME280;62437;51.544;-3.276;2023-02-28T12:07:26;102873.75;;;4.68;61.87
74079;BME280;62437;51.544;-3.276;2023-02-28T12:09:52;102870.88;;;5.24;61.27
74079;BME280;62437;51.544;-3.276;2023-02-28T12:12:11;102871.69;;;5.04;60.48
74079;BME280;62437;51.544;-3.276;2023-02-28T12:17:10;102875.36;;;4.12;65.44
74079;BME280;62437;51.544;-3.276;2023-02-28T12:19:30;102873.70;;;3.45;66.59
74079;BME280;62437;51.544;-3.276;2023-02-28T12:22:05;102869.85;;;4.00;66.66
74079;BME280;62437;51.544;-3.276;2023-02-28T12:24:33;102870.85;;;3.32;66.91
74079;BME280;62437;51.544;-3.276;2023-02-28T12:26:39;102864.26;;;2.81;68.04
74079;BME280;62437;51.544;-3.276;2023-02-28T12:29:15;102861.06;;;3.06;67.30
74079;BME280;62437;51.544;-3.276;2023-02-28T12:31:40;102855.60;;;3.17;68.48
74079;BME280;62437;51.544;-3.276;2023-02-28T12:34:01;102847.40;;;3.21;68.98
74079;BME280;62437;51.544;-3.276;2023-02-28T12:36:25;102847.40;;;3.39;66.14
74079;BME280;62437;51.544;-3.276;2023-02-28T12:38:48;102847.47;;;3.92;67.79
74079;BME280;62437;51.544;-3.276;2023-02-28T12:41:19;102846.72;;;3.98;66.06
74079;BME280;62437;51.544;-3.276;2023-02-28T12:43:45;102843.09;;;4.61;65.50
74079;BME280;62437;51.544;-3.276;2023-02-28T12:46:09;102836.74;;;5.13;64.62
74079;BME280;62437;51.544;-3.276;2023-02-28T12:48:42;102835.33;;;4.51;62.22
74079;BME280;62437;51.544;-3.276;2023-02-28T12:50:56;102833.63;;;5.02;65.16
74079;BME280;62437;51.544;-3.276;2023-02-28T12:53:31;102830.24;;;4.35;61.70
74079;BME280;62437;51.544;-3.276;2023-02-28T12:56:07;102828.82;;;5.55;61.64